Time;durP1;ratioP1;P1;durP2;ratioP2;P2;SDS_P1;SDS_P2;PMS_P1;PMS_P2;Temp;Humidity;BMP_temperature;BMP_pressure;BME280_temperature;BME280_humidity;BME280_pressure;Samples;Min_cycle;Max_cycle;Signal;HPM_P1;HPM_P2
2022/12/16 00:01:28;;;;;;;38.57;26.30;;;;;;;-145.23;100.00;58621.06;5012564;28;20231;-53
2022/12/16 00:03:56;;;;;;;35.77;24.47;;;;;;;-145.23;100.00;58621.06;5008722;28;20369;-53
2022/12/16 00:06:24;;;;;;;37.03;26.23;;;;;;;-145.23;100.00;58621.06;5009454;28;21155;-54
2022/12/16 00:08:51;;;;;;;31.87;25.70;;;;;;;-145.23;100.00;58621.06;5008079;28;20290;-54
2022/12/16 00:11:18;;;;;;;37.07;25.80;;;;;;;-145.23;100.00;58621.06;5010570;28;20322;-53
2022/12/16 00:13:45;;;;;;;43.23;26.67;;;;;;;-145.23;100.00;58621.06;5011273;28;20293;-53
2022/12/16 00:16:14;;;;;;;34.30;26.53;;;;;;;-145.23;100.00;58621.06;5010780;28;20237;-53
2022/12/16 00:18:41;;;;;;;35.50;24.87;;;;;;;-145.23;100.00;58621.06;5011570;28;20318;-54
2022/12/16 00:21:08;;;;;;;35.03;25.83;;;;;;;-145.23;100.00;58621.06;5009653;28;20768;-53
2022/12/16 00:23:35;;;;;;;38.73;26.03;;;;;;;-145.23;100.00;58621.06;5009343;28;20326;-53
2022/12/16 00:26:02;;;;;;;41.87;27.10;;;;;;;-145.23;100.00;58621.06;5005453;28;20241;-54
2022/12/16 00:28:29;;;;;;;44.17;28.30;;;;;;;-145.23;100.00;58621.06;5009576;28;20231;-53
2022/12/16 00:30:56;;;;;;;40.63;26.17;;;;;;;-145.23;100.00;58621.06;5009615;28;20330;-53
2022/12/16 00:33:26;;;;;;;37.33;25.67;;;;;;;-145.23;100.00;58621.06;5013298;28;20320;-53
2022/12/16 00:35:53;;;;;;;38.57;27.00;;;;;;;-145.23;100.00;58621.06;5014586;28;20266;-55
2022/12/16 00:38:20;;;;;;;35.43;26.43;;;;;;;-145.23;100.00;58621.06;5001894;28;20857;-54
2022/12/16 00:40:47;;;;;;;40.67;27.63;;;;;;;-145.23;100.00;58621.06;5009463;28;20256;-53
2022/12/16 00:43:13;;;;;;;36.83;25.13;;;;;;;-145.23;100.00;58621.06;5007267;28;20323;-53
2022/12/16 00:45:40;;;;;;;39.83;26.17;;;;;;;-145.23;100.00;58621.06;5011715;28;20238;-53
2022/12/16 00:48:07;;;;;;;35.60;24.50;;;;;;;-145.23;100.00;58621.06;5010999;28;20738;-55
2022/12/16 00:50:36;;;;;;;35.20;26.07;;;;;;;-145.23;100.00;58621.06;5009762;28;20701;-54
2022/12/16 00:53:02;;;;;;;39.20;24.23;;;;;;;-145.23;100.00;58621.06;5010927;28;20235;-54
2022/12/16 00:55:29;;;;;;;41.17;28.10;;;;;;;-145.23;100.00;58621.06;5003008;28;20270;-54
2022/12/16 00:57:56;;;;;;;39.03;26.93;;;;;;;-145.23;100.00;58621.06;5006618;28;20323;-54
2022/12/16 01:00:25;;;;;;;37.43;26.17;;;;;;;-145.23;100.00;58621.06;5008405;28;20653;-57
2022/12/16 01:02:52;;;;;;;41.27;27.40;;;;;;;-145.23;100.00;58621.06;5006101;28;20268;-53
2022/12/16 01:05:25;;;;;;;39.77;26.03;;;;;;;-145.23;100.00;58621.06;5008609;28;20676;-54
2022/12/16 01:07:54;;;;;;;37.80;25.37;;;;;;;-145.23;100.00;58621.06;5008103;28;20738;-53
2022/12/16 01:10:21;;;;;;;40.43;27.33;;;;;;;-145.23;100.00;58621.06;5007786;28;20232;-54
2022/12/16 01:12:48;;;;;;;34.67;23.73;;;;;;;-145.23;100.00;58621.06;5009146;28;20298;-54
2022/12/16 01:15:15;;;;;;;41.10;26.93;;;;;;;-145.23;100.00;58621.06;5008733;28;20236;-53
2022/12/16 01:17:42;;;;;;;36.90;25.40;;;;;;;-145.23;100.00;58621.06;5008266;28;20243;-55
2022/12/16 01:20:10;;;;;;;36.40;24.77;;;;;;;-145.23;100.00;58621.06;5007115;28;20780;-54
2022/12/16 01:22:37;;;;;;;36.47;24.93;;;;;;;-145.23;100.00;58621.06;5015312;28;20770;-54
2022/12/16 01:25:06;;;;;;;36.77;25.60;;;;;;;-145.23;100.00;58621.06;5008640;28;20372;-54
2022/12/16 01:27:33;;;;;;;37.00;25.27;;;;;;;-145.23;100.00;58621.06;5010524;28;20232;-54
2022/12/16 01:30:00;;;;;;;44.17;26.60;;;;;;;-145.23;100.00;58621.06;5004045;28;20236;-53
2022/12/16 01:32:27;;;;;;;37.03;24.87;;;;;;;-145.23;100.00;58621.06;5026930;28;20243;-54
2022/12/16 01:34:55;;;;;;;32.00;22.93;;;;;;;-145.23;100.00;58621.06;5039641;28;20233;-54
2022/12/16 01:37:22;;;;;;;36.30;25.07;;;;;;;-145.23;100.00;58621.06;5026583;28;20227;-54
2022/12/16 01:39:49;;;;;;;40.27;26.97;;;;;;;-145.23;100.00;58621.06;5027452;28;20354;-53
2022/12/16 01:42:19;;;;;;;34.83;25.00;;;;;;;-145.23;100.00;58621.06;5027391;28;20301;-54
2022/12/16 01:44:48;;;;;;;38.83;27.33;;;;;;;-145.23;100.00;58621.06;5027296;28;20236;-55
2022/12/16 01:47:16;;;;;;;38.37;25.90;;;;;;;-145.23;100.00;58621.06;5023275;28;20242;-54
2022/12/16 01:49:46;;;;;;;37.33;24.60;;;;;;;-145.23;100.00;58621.06;5022724;28;20236;-54
2022/12/16 01:52:16;;;;;;;40.83;25.17;;;;;;;-145.23;100.00;58621.06;5020268;28;20262;-54
2022/12/16 01:54:45;;;;;;;39.27;25.50;;;;;;;-145.23;100.00;58621.06;5032370;28;20253;-54
2022/12/16 01:57:16;;;;;;;34.33;24.40;;;;;;;-145.23;100.00;58621.06;5027383;28;20289;-54
2022/12/16 01:59:47;;;;;;;35.20;25.47;;;;;;;-145.23;100.00;58621.06;5010162;28;20900;-54
2022/12/16 02:02:15;;;;;;;35.83;26.10;;;;;;;-145.23;100.00;58621.06;5004945;28;20844;-54
2022/12/16 02:05:19;;;;;;;37.53;25.90;;;;;;;-145.23;100.00;58621.06;5006681;28;20266;-56
2022/12/16 02:07:31;;;;;;;38.47;24.53;;;;;;;-145.23;100.00;58621.06;5012669;28;20235;-53
2022/12/16 02:09:58;;;;;;;41.60;25.47;;;;;;;-145.23;100.00;58621.06;5010127;28;20791;-56
2022/12/16 02:12:29;;;;;;;35.17;24.33;;;;;;;-145.23;100.00;58621.06;5025766;28;20258;-54
2022/12/16 02:15:22;;;;;;;37.00;24.00;;;;;;;-145.23;100.00;58621.06;5005371;28;20279;-53
2022/12/16 02:17:55;;;;;;;35.53;24.47;;;;;;;-145.23;100.00;58621.06;5008036;28;20223;-53
2022/12/16 02:20:40;;;;;;;40.60;24.40;;;;;;;-145.23;100.00;58621.06;5011485;28;20619;-54
2022/12/16 02:23:35;;;;;;;39.07;27.90;;;;;;;-145.23;100.00;58621.06;4997275;28;20313;-54
2022/12/16 02:26:22;;;;;;;42.90;29.13;;;;;;;-145.23;100.00;58621.06;5005095;28;20319;-55
2022/12/16 02:29:03;;;;;;;47.63;29.87;;;;;;;-145.23;100.00;58621.06;5016297;28;20247;-54
2022/12/16 02:31:35;;;;;;;40.87;28.53;;;;;;;-145.23;100.00;58621.06;5013853;28;20240;-54
2022/12/16 02:34:12;;;;;;;38.37;27.57;;;;;;;-145.23;100.00;58621.06;5007895;28;20239;-54
2022/12/16 02:36:47;;;;;;;42.67;29.83;;;;;;;-145.23;100.00;58621.06;5015717;28;20228;-54
2022/12/16 02:39:20;;;;;;;43.43;29.27;;;;;;;-145.23;100.00;58621.06;5000590;28;20227;-54
2022/12/16 02:41:51;;;;;;;44.83;30.40;;;;;;;-145.23;100.00;58621.06;5006273;28;20341;-54
2022/12/16 02:44:19;;;;;;;42.83;28.67;;;;;;;-145.23;100.00;58621.06;4990948;28;20263;-55
2022/12/16 02:46:54;;;;;;;44.23;27.63;;;;;;;-145.23;100.00;58621.06;5003200;28;20266;-53
2022/12/16 02:49:45;;;;;;;40.53;28.63;;;;;;;-145.23;100.00;58621.06;5001547;28;20242;-54
2022/12/16 02:52:12;;;;;;;43.87;29.27;;;;;;;-145.23;100.00;58621.06;5005177;28;20324;-54
2022/12/16 02:54:40;;;;;;;39.73;28.07;;;;;;;-145.23;100.00;58621.06;5006419;28;20319;-53
2022/12/16 02:57:12;;;;;;;45.03;29.77;;;;;;;-145.23;100.00;58621.06;5005666;28;20242;-54
2022/12/16 02:59:43;;;;;;;38.63;28.73;;;;;;;-145.23;100.00;58621.06;5004670;28;20741;-54
2022/12/16 03:02:15;;;;;;;46.63;29.77;;;;;;;-145.23;100.00;58621.06;4998652;28;20328;-54
2022/12/16 03:04:48;;;;;;;45.50;29.20;;;;;;;-145.23;100.00;58621.06;4994045;28;20724;-53
2022/12/16 03:07:17;;;;;;;47.07;30.63;;;;;;;-145.23;100.00;58621.06;5005232;28;20243;-53
2022/12/16 03:09:45;;;;;;;46.77;32.50;;;;;;;-145.23;100.00;58621.06;5004809;28;20605;-53
2022/12/16 03:12:14;;;;;;;47.03;30.47;;;;;;;-145.23;100.00;58621.06;5000729;28;20285;-54
2022/12/16 03:14:44;;;;;;;44.40;29.23;;;;;;;-145.23;100.00;58621.06;5002864;28;20247;-54
2022/12/16 03:17:13;;;;;;;48.90;31.77;;;;;;;-145.23;100.00;58621.06;5004055;28;20238;-55
2022/12/16 03:19:42;;;;;;;41.53;30.03;;;;;;;-145.23;100.00;58621.06;5005293;28;20235;-54
2022/12/16 03:22:13;;;;;;;42.10;29.87;;;;;;;-145.23;100.00;58621.06;5003573;28;20334;-54
2022/12/16 03:24:41;;;;;;;41.90;28.77;;;;;;;-145.23;100.00;58621.06;5009373;28;20297;-54
2022/12/16 03:27:10;;;;;;;40.17;28.47;;;;;;;-145.23;100.00;58621.06;5023662;28;20774;-53
2022/12/16 03:29:44;;;;;;;39.90;26.63;;;;;;;-145.23;100.00;58621.06;5015126;28;20877;-53
2022/12/16 03:32:16;;;;;;;38.20;26.43;;;;;;;-145.23;100.00;58621.06;4999960;28;20238;-54
2022/12/16 03:34:46;;;;;;;36.70;25.27;;;;;;;-145.23;100.00;58621.06;5018742;28;20242;-53
2022/12/16 03:37:13;;;;;;;43.53;28.20;;;;;;;-145.23;100.00;58621.06;5021729;28;20239;-54
2022/12/16 03:39:44;;;;;;;37.47;26.07;;;;;;;-145.23;100.00;58621.06;5003489;28;20265;-53
2022/12/16 03:42:11;;;;;;;51.40;27.23;;;;;;;-145.23;100.00;58621.06;5002594;28;20277;-53
2022/12/16 03:44:39;;;;;;;44.40;27.03;;;;;;;-145.23;100.00;58621.06;5003929;28;20242;-54
2022/12/16 03:47:06;;;;;;;40.67;27.03;;;;;;;-145.23;100.00;58621.06;5001629;28;20254;-53
2022/12/16 03:49:34;;;;;;;44.00;27.40;;;;;;;-145.23;100.00;58621.06;5004646;28;20239;-55
2022/12/16 03:52:01;;;;;;;42.10;27.17;;;;;;;-145.23;100.00;58621.06;5001256;28;20713;-53
2022/12/16 03:54:30;;;;;;;45.37;29.80;;;;;;;-145.23;100.00;58621.06;5025034;28;20242;-54
2022/12/16 03:56:57;;;;;;;40.87;26.73;;;;;;;-145.23;100.00;58621.06;5027245;28;20314;-54
2022/12/16 03:59:24;;;;;;;45.33;29.40;;;;;;;-145.23;100.00;58621.06;5025552;28;20235;-55
2022/12/16 04:01:51;;;;;;;51.90;31.50;;;;;;;-145.23;100.00;58621.06;5022952;28;20245;-53
2022/12/16 04:04:19;;;;;;;47.43;30.80;;;;;;;-145.23;100.00;58621.06;5022917;28;20227;-54
2022/12/16 04:07:19;;;;;;;47.33;30.77;;;;;;;-145.23;100.00;58621.06;5022807;28;20315;-54
2022/12/16 04:09:34;;;;;;;53.57;33.33;;;;;;;-145.23;100.00;58621.06;5016462;28;20265;-53
2022/12/16 04:25:45;;;;;;;47.30;29.80;;;;;;;-145.23;100.00;58621.06;5018909;28;20362;-54
2022/12/16 04:28:11;;;;;;;47.17;30.10;;;;;;;-145.23;100.00;58621.06;5003591;28;20690;-53
2022/12/16 04:30:38;;;;;;;48.43;30.20;;;;;;;-145.23;100.00;58621.06;5005141;28;20318;-53
